sensor_id;sensor_type;location;lat;lon;timestamp;P1;durP1;ratioP1;P2;durP2;ratioP2
15383;SDS011;7790;53.022;12.968;2023-08-07T00:00:55;1.37;;;1.27;;
15383;SDS011;7790;53.022;12.968;2023-08-07T00:04:56;1.33;;;1.23;;
15383;SDS011;7790;53.022;12.968;2023-08-07T00:08:58;1.30;;;1.20;;
15383;SDS011;7790;53.022;12.968;2023-08-07T00:12:58;1.43;;;1.33;;
15383;SDS011;7790;53.022;12.968;2023-08-07T00:16:59;1.27;;;1.17;;
15383;SDS011;7790;53.022;12.968;2023-08-07T00:21:00;2.60;;;1.30;;
15383;SDS011;7790;53.022;12.968;2023-08-07T00:25:01;1.40;;;1.30;;
15383;SDS011;7790;53.022;12.968;2023-08-07T00:29:02;1.17;;;1.00;;
15383;SDS011;7790;53.022;12.968;2023-08-07T00:33:03;1.30;;;1.20;;
15383;SDS011;7790;53.022;12.968;2023-08-07T00:37:04;1.87;;;1.57;;
15383;SDS011;7790;53.022;12.968;2023-08-07T00:41:05;2.20;;;1.30;;
15383;SDS011;7790;53.022;12.968;2023-08-07T00:45:07;1.37;;;1.27;;
15383;SDS011;7790;53.022;12.968;2023-08-07T00:49:09;1.30;;;1.20;;
15383;SDS011;7790;53.022;12.968;2023-08-07T00:53:12;1.43;;;1.33;;
15383;SDS011;7790;53.022;12.968;2023-08-07T00:57:15;1.40;;;1.30;;
15383;SDS011;7790;53.022;12.968;2023-08-07T01:01:17;1.40;;;1.30;;
15383;SDS011;7790;53.022;12.968;2023-08-07T01:05:18;2.73;;;1.50;;
15383;SDS011;7790;53.022;12.968;2023-08-07T01:09:19;1.37;;;1.30;;
15383;SDS011;7790;53.022;12.968;2023-08-07T01:13:34;2.50;;;1.60;;
15383;SDS011;7790;53.022;12.968;2023-08-07T01:18:11;2.60;;;1.30;;
15383;SDS011;7790;53.022;12.968;2023-08-07T01:22:14;1.40;;;1.30;;
15383;SDS011;7790;53.022;12.968;2023-08-07T01:26:17;1.37;;;1.30;;
15383;SDS011;7790;53.022;12.968;2023-08-07T01:30:38;1.53;;;1.30;;
15383;SDS011;7790;53.022;12.968;2023-08-07T01:34:43;1.60;;;1.50;;
15383;SDS011;7790;53.022;12.968;2023-08-07T01:43:20;1.93;;;1.30;;
15383;SDS011;7790;53.022;12.968;2023-08-07T01:47:21;1.10;;;1.10;;
15383;SDS011;7790;53.022;12.968;2023-08-07T01:51:22;1.83;;;1.30;;
15383;SDS011;7790;53.022;12.968;2023-08-07T01:55:23;1.43;;;1.33;;
15383;SDS011;7790;53.022;12.968;2023-08-07T01:59:25;1.40;;;1.30;;
15383;SDS011;7790;53.022;12.968;2023-08-07T02:03:26;1.50;;;1.40;;
15383;SDS011;7790;53.022;12.968;2023-08-07T02:07:27;1.63;;;1.53;;
15383;SDS011;7790;53.022;12.968;2023-08-07T02:11:28;1.30;;;1.20;;
15383;SDS011;7790;53.022;12.968;2023-08-07T02:15:29;1.50;;;1.40;;
15383;SDS011;7790;53.022;12.968;2023-08-07T02:19:30;2.20;;;1.37;;
15383;SDS011;7790;53.022;12.968;2023-08-07T02:23:32;1.50;;;1.40;;
15383;SDS011;7790;53.022;12.968;2023-08-07T02:27:35;1.20;;;1.20;;
15383;SDS011;7790;53.022;12.968;2023-08-07T02:31:38;1.50;;;1.40;;
15383;SDS011;7790;53.022;12.968;2023-08-07T02:35:39;1.53;;;1.20;;
15383;SDS011;7790;53.022;12.968;2023-08-07T02:39:40;1.10;;;1.10;;
15383;SDS011;7790;53.022;12.968;2023-08-07T02:43:40;1.93;;;1.50;;
15383;SDS011;7790;53.022;12.968;2023-08-07T02:47:41;1.57;;;1.47;;
15383;SDS011;7790;53.022;12.968;2023-08-07T02:51:42;1.90;;;1.30;;
15383;SDS011;7790;53.022;12.968;2023-08-07T02:55:43;1.20;;;1.20;;
15383;SDS011;7790;53.022;12.968;2023-08-07T02:59:44;1.47;;;1.30;;
15383;SDS011;7790;53.022;12.968;2023-08-07T03:03:45;1.60;;;1.50;;
15383;SDS011;7790;53.022;12.968;2023-08-07T03:07:46;1.47;;;1.37;;
15383;SDS011;7790;53.022;12.968;2023-08-07T03:11:48;1.40;;;1.30;;
15383;SDS011;7790;53.022;12.968;2023-08-07T03:15:48;1.70;;;1.60;;
15383;SDS011;7790;53.022;12.968;2023-08-07T03:19:50;2.13;;;1.63;;
15383;SDS011;7790;53.022;12.968;2023-08-07T03:23:51;1.70;;;1.60;;
15383;SDS011;7790;53.022;12.968;2023-08-07T03:27:52;1.50;;;1.40;;
15383;SDS011;7790;53.022;12.968;2023-08-07T03:31:53;1.47;;;1.37;;
15383;SDS011;7790;53.022;12.968;2023-08-07T03:35:55;1.30;;;1.30;;
15383;SDS011;7790;53.022;12.968;2023-08-07T03:39:56;1.50;;;1.40;;
15383;SDS011;7790;53.022;12.968;2023-08-07T03:43:58;1.60;;;1.27;;
15383;SDS011;7790;53.022;12.968;2023-08-07T03:47:59;1.80;;;1.43;;
15383;SDS011;7790;53.022;12.968;2023-08-07T03:52:00;1.50;;;1.40;;
15383;SDS011;7790;53.022;12.968;2023-08-07T03:56:01;1.43;;;1.33;;
15383;SDS011;7790;53.022;12.968;2023-08-07T04:00:03;1.50;;;1.30;;
15383;SDS011;7790;53.022;12.968;2023-08-07T04:04:13;1.60;;;1.50;;
15383;SDS011;7790;53.022;12.968;2023-08-07T04:08:14;1.57;;;1.40;;
15383;SDS011;7790;53.022;12.968;2023-08-07T04:12:15;5.03;;;1.70;;
15383;SDS011;7790;53.022;12.968;2023-08-07T04:16:17;2.60;;;1.50;;
15383;SDS011;7790;53.022;12.968;2023-08-07T04:20:18;3.03;;;1.70;;
15383;SDS011;7790;53.022;12.968;2023-08-07T04:24:20;4.30;;;1.90;;
15383;SDS011;7790;53.022;12.968;2023-08-07T04:28:21;2.27;;;1.50;;
15383;SDS011;7790;53.022;12.968;2023-08-07T04:32:22;2.17;;;1.50;;
15383;SDS011;7790;53.022;12.968;2023-08-07T04:36:23;6.40;;;1.80;;
15383;SDS011;7790;53.022;12.968;2023-08-07T04:40:24;3.47;;;1.67;;
15383;SDS011;7790;53.022;12.968;2023-08-07T04:44:25;3.27;;;1.67;;
15383;SDS011;7790;53.022;12.968;2023-08-07T04:48:26;3.50;;;1.73;;
15383;SDS011;7790;53.022;12.968;2023-08-07T04:52:27;2.43;;;1.70;;
15383;SDS011;7790;53.022;12.968;2023-08-07T04:56:27;2.20;;;1.60;;
15383;SDS011;7790;53.022;12.968;2023-08-07T05:00:28;2.73;;;1.70;;
15383;SDS011;7790;53.022;12.968;2023-08-07T05:04:29;7.80;;;1.90;;
15383;SDS011;7790;53.022;12.968;2023-08-07T05:08:30;3.67;;;1.90;;
15383;SDS011;7790;53.022;12.968;2023-08-07T05:12:31;3.83;;;1.80;;
15383;SDS011;7790;53.022;12.968;2023-08-07T05:16:32;2.10;;;1.60;;
15383;SDS011;7790;53.022;12.968;2023-08-07T05:20:33;7.70;;;2.10;;
15383;SDS011;7790;53.022;12.968;2023-08-07T05:24:34;1.70;;;1.60;;
15383;SDS011;7790;53.022;12.968;2023-08-07T05:28:38;3.37;;;1.67;;
15383;SDS011;7790;53.022;12.968;2023-08-07T05:32:39;1.83;;;1.43;;
15383;SDS011;7790;53.022;12.968;2023-08-07T05:36:40;2.20;;;1.33;;
15383;SDS011;7790;53.022;12.968;2023-08-07T05:40:41;2.53;;;1.50;;
15383;SDS011;7790;53.022;12.968;2023-08-07T05:44:42;4.03;;;1.63;;
15383;SDS011;7790;53.022;12.968;2023-08-07T05:48:43;5.20;;;1.80;;
15383;SDS011;7790;53.022;12.968;2023-08-07T05:52:44;3.83;;;1.70;;
15383;SDS011;7790;53.022;12.968;2023-08-07T05:56:45;2.67;;;1.60;;
15383;SDS011;7790;53.022;12.968;2023-08-07T06:00:46;2.63;;;1.60;;
15383;SDS011;7790;53.022;12.968;2023-08-07T06:04:47;2.13;;;1.57;;
15383;SDS011;7790;53.022;12.968;2023-08-07T06:08:48;1.57;;;1.47;;
15383;SDS011;7790;53.022;12.968;2023-08-07T06:12:49;2.73;;;1.77;;
15383;SDS011;7790;53.022;12.968;2023-08-07T06:16:50;3.37;;;1.70;;
15383;SDS011;7790;53.022;12.968;2023-08-07T06:20:52;4.90;;;1.40;;
15383;SDS011;7790;53.022;12.968;2023-08-07T06:24:52;5.73;;;1.60;;
15383;SDS011;7790;53.022;12.968;2023-08-07T06:28:53;3.00;;;1.40;;
15383;SDS011;7790;53.022;12.968;2023-08-07T06:32:54;3.30;;;1.60;;
15383;SDS011;7790;53.022;12.968;2023-08-07T06:36:55;6.87;;;1.40;;
15383;SDS011;7790;53.022;12.968;2023-08-07T06:40:56;1.60;;;1.50;;
15383;SDS011;7790;53.022;12.968;2023-08-07T06:44:57;1.70;;;1.60;;
15383;SDS011;7790;53.022;12.968;2023-08-07T06:48:58;2.43;;;1.50;;
15383;SDS011;7790;53.022;12.968;2023-08-07T06:52:59;1.70;;;1.37;;
15383;SDS011;7790;53.022;12.968;2023-08-07T06:57:00;1.90;;;1.60;;
15383;SDS011;7790;53.022;12.968;2023-08-07T07:01:00;2.07;;;1.50;;
15383;SDS011;7790;53.022;12.968;2023-08-07T07:05:01;2.07;;;1.50;;
15383;SDS011;7790;53.022;12.968;2023-08-07T07:09:03;2.17;;;1.47;;
15383;SDS011;7790;53.022;12.968;2023-08-07T07:13:03;2.70;;;1.30;;
15383;SDS011;7790;53.022;12.968;2023-08-07T07:17:05;3.33;;;1.40;;
15383;SDS011;7790;53.022;12.968;2023-08-07T07:21:05;4.40;;;1.53;;
15383;SDS011;7790;53.022;12.968;2023-08-07T07:25:06;3.23;;;1.37;;
15383;SDS011;7790;53.022;12.968;2023-08-07T07:29:08;2.30;;;1.43;;
15383;SDS011;7790;53.022;12.968;2023-08-07T07:33:08;1.63;;;1.27;;
15383;SDS011;7790;53.022;12.968;2023-08-07T07:37:09;2.37;;;1.37;;
15383;SDS011;7790;53.022;12.968;2023-08-07T07:41:10;3.47;;;1.53;;
15383;SDS011;7790;53.022;12.968;2023-08-07T07:45:11;1.93;;;1.57;;
15383;SDS011;7790;53.022;12.968;2023-08-07T07:49:12;1.43;;;1.33;;
15383;SDS011;7790;53.022;12.968;2023-08-07T07:53:13;4.93;;;1.30;;
15383;SDS011;7790;53.022;12.968;2023-08-07T07:57:14;1.80;;;1.50;;
15383;SDS011;7790;53.022;12.968;2023-08-07T08:01:14;3.40;;;1.37;;
15383;SDS011;7790;53.022;12.968;2023-08-07T08:05:15;2.50;;;1.40;;
15383;SDS011;7790;53.022;12.968;2023-08-07T08:09:16;1.70;;;1.20;;
15383;SDS011;7790;53.022;12.968;2023-08-07T08:13:17;1.00;;;1.00;;
15383;SDS011;7790;53.022;12.968;2023-08-07T08:17:19;1.93;;;1.20;;
15383;SDS011;7790;53.022;12.968;2023-08-07T08:21:20;1.53;;;1.30;;
15383;SDS011;7790;53.022;12.968;2023-08-07T08:25:20;2.20;;;1.37;;
15383;SDS011;7790;53.022;12.968;2023-08-07T08:29:21;1.53;;;1.10;;
15383;SDS011;7790;53.022;12.968;2023-08-07T08:33:22;2.87;;;1.40;;
15383;SDS011;7790;53.022;12.968;2023-08-07T08:37:23;3.73;;;1.60;;
15383;SDS011;7790;53.022;12.968;2023-08-07T08:41:24;1.87;;;1.40;;
15383;SDS011;7790;53.022;12.968;2023-08-07T08:45:26;5.13;;;1.63;;
15383;SDS011;7790;53.022;12.968;2023-08-07T08:49:28;4.50;;;1.40;;
15383;SDS011;7790;53.022;12.968;2023-08-07T08:53:33;4.87;;;1.30;;
15383;SDS011;7790;53.022;12.968;2023-08-07T08:57:35;3.50;;;1.43;;
15383;SDS011;7790;53.022;12.968;2023-08-07T09:01:36;3.57;;;1.30;;
15383;SDS011;7790;53.022;12.968;2023-08-07T09:05:38;4.53;;;1.57;;
15383;SDS011;7790;53.022;12.968;2023-08-07T09:09:40;4.37;;;1.47;;
15383;SDS011;7790;53.022;12.968;2023-08-07T09:13:43;2.23;;;1.60;;
15383;SDS011;7790;53.022;12.968;2023-08-07T09:17:48;2.50;;;1.30;;
15383;SDS011;7790;53.022;12.968;2023-08-07T09:21:53;5.30;;;1.50;;
15383;SDS011;7790;53.022;12.968;2023-08-07T09:26:00;3.87;;;1.60;;
15383;SDS011;7790;53.022;12.968;2023-08-07T09:30:02;2.80;;;1.60;;
15383;SDS011;7790;53.022;12.968;2023-08-07T09:34:05;2.00;;;1.30;;
15383;SDS011;7790;53.022;12.968;2023-08-07T09:38:06;2.60;;;1.33;;
15383;SDS011;7790;53.022;12.968;2023-08-07T09:42:14;2.37;;;1.20;;
15383;SDS011;7790;53.022;12.968;2023-08-07T09:46:16;3.20;;;1.30;;
15383;SDS011;7790;53.022;12.968;2023-08-07T09:50:18;2.60;;;1.37;;
15383;SDS011;7790;53.022;12.968;2023-08-07T09:54:19;2.87;;;1.40;;
15383;SDS011;7790;53.022;12.968;2023-08-07T09:58:19;3.07;;;1.37;;
15383;SDS011;7790;53.022;12.968;2023-08-07T10:02:20;3.27;;;1.63;;
15383;SDS011;7790;53.022;12.968;2023-08-07T10:06:22;2.10;;;1.40;;
15383;SDS011;7790;53.022;12.968;2023-08-07T10:10:23;1.87;;;1.40;;
15383;SDS011;7790;53.022;12.968;2023-08-07T10:14:25;4.20;;;1.40;;
15383;SDS011;7790;53.022;12.968;2023-08-07T10:18:27;2.30;;;1.13;;
15383;SDS011;7790;53.022;12.968;2023-08-07T10:22:29;3.07;;;1.50;;
15383;SDS011;7790;53.022;12.968;2023-08-07T10:26:34;5.03;;;1.63;;
15383;SDS011;7790;53.022;12.968;2023-08-07T10:30:36;2.47;;;1.33;;
15383;SDS011;7790;53.022;12.968;2023-08-07T10:34:38;2.70;;;1.40;;
15383;SDS011;7790;53.022;12.968;2023-08-07T10:38:40;2.30;;;1.40;;
15383;SDS011;7790;53.022;12.968;2023-08-07T10:47:06;1.93;;;1.37;;
15383;SDS011;7790;53.022;12.968;2023-08-07T10:51:07;1.80;;;1.40;;
15383;SDS011;7790;53.022;12.968;2023-08-07T10:55:12;2.43;;;1.57;;
15383;SDS011;7790;53.022;12.968;2023-08-07T10:59:14;1.43;;;1.23;;
15383;SDS011;7790;53.022;12.968;2023-08-07T11:03:27;3.13;;;1.50;;
15383;SDS011;7790;53.022;12.968;2023-08-07T11:07:29;2.07;;;1.60;;
15383;SDS011;7790;53.022;12.968;2023-08-07T11:11:37;2.27;;;1.50;;
15383;SDS011;7790;53.022;12.968;2023-08-07T11:15:40;2.77;;;1.20;;
15383;SDS011;7790;53.022;12.968;2023-08-07T11:19:41;2.97;;;1.60;;
15383;SDS011;7790;53.022;12.968;2023-08-07T11:23:42;2.67;;;1.60;;
15383;SDS011;7790;53.022;12.968;2023-08-07T11:27:44;4.83;;;1.30;;
15383;SDS011;7790;53.022;12.968;2023-08-07T11:31:45;2.83;;;1.40;;
15383;SDS011;7790;53.022;12.968;2023-08-07T11:35:47;2.77;;;1.70;;
15383;SDS011;7790;53.022;12.968;2023-08-07T11:39:48;1.83;;;1.40;;
15383;SDS011;7790;53.022;12.968;2023-08-07T11:43:49;1.73;;;1.30;;
15383;SDS011;7790;53.022;12.968;2023-08-07T11:47:50;3.03;;;1.50;;
15383;SDS011;7790;53.022;12.968;2023-08-07T11:51:51;2.23;;;1.47;;
15383;SDS011;7790;53.022;12.968;2023-08-07T11:55:59;2.43;;;1.57;;
15383;SDS011;7790;53.022;12.968;2023-08-07T12:00:06;3.67;;;1.50;;
15383;SDS011;7790;53.022;12.968;2023-08-07T12:04:13;3.97;;;1.60;;
15383;SDS011;7790;53.022;12.968;2023-08-07T12:08:14;4.40;;;2.03;;
15383;SDS011;7790;53.022;12.968;2023-08-07T12:12:15;5.67;;;2.37;;
15383;SDS011;7790;53.022;12.968;2023-08-07T12:16:19;8.67;;;2.83;;
15383;SDS011;7790;53.022;12.968;2023-08-07T12:20:20;8.07;;;2.57;;
15383;SDS011;7790;53.022;12.968;2023-08-07T12:24:23;4.43;;;2.60;;
15383;SDS011;7790;53.022;12.968;2023-08-07T12:28:24;8.37;;;2.70;;
15383;SDS011;7790;53.022;12.968;2023-08-07T12:32:25;8.10;;;2.70;;
15383;SDS011;7790;53.022;12.968;2023-08-07T12:36:26;5.97;;;2.97;;
15383;SDS011;7790;53.022;12.968;2023-08-07T12:40:26;6.80;;;3.03;;
15383;SDS011;7790;53.022;12.968;2023-08-07T12:44:27;8.50;;;2.90;;
15383;SDS011;7790;53.022;12.968;2023-08-07T12:48:28;9.47;;;3.20;;
15383;SDS011;7790;53.022;12.968;2023-08-07T12:52:29;7.67;;;2.67;;
15383;SDS011;7790;53.022;12.968;2023-08-07T12:56:30;7.50;;;2.73;;
15383;SDS011;7790;53.022;12.968;2023-08-07T13:00:31;5.27;;;2.60;;
15383;SDS011;7790;53.022;12.968;2023-08-07T13:04:32;8.13;;;2.80;;
15383;SDS011;7790;53.022;12.968;2023-08-07T13:08:34;8.83;;;2.90;;
15383;SDS011;7790;53.022;12.968;2023-08-07T13:12:35;5.10;;;2.73;;
15383;SDS011;7790;53.022;12.968;2023-08-07T13:16:37;6.33;;;2.50;;
15383;SDS011;7790;53.022;12.968;2023-08-07T13:20:38;6.83;;;2.40;;
15383;SDS011;7790;53.022;12.968;2023-08-07T13:24:39;9.07;;;2.90;;
15383;SDS011;7790;53.022;12.968;2023-08-07T13:28:39;9.70;;;3.10;;
15383;SDS011;7790;53.022;12.968;2023-08-07T13:32:41;7.20;;;2.47;;
15383;SDS011;7790;53.022;12.968;2023-08-07T13:36:42;7.63;;;2.53;;
15383;SDS011;7790;53.022;12.968;2023-08-07T13:40:42;4.40;;;2.33;;
15383;SDS011;7790;53.022;12.968;2023-08-07T13:44:44;6.83;;;2.70;;
15383;SDS011;7790;53.022;12.968;2023-08-07T13:48:46;4.53;;;2.77;;
15383;SDS011;7790;53.022;12.968;2023-08-07T13:52:46;6.60;;;2.87;;
15383;SDS011;7790;53.022;12.968;2023-08-07T13:56:47;5.63;;;2.93;;
15383;SDS011;7790;53.022;12.968;2023-08-07T14:00:48;10.77;;;2.80;;
15383;SDS011;7790;53.022;12.968;2023-08-07T14:04:49;5.20;;;2.47;;
15383;SDS011;7790;53.022;12.968;2023-08-07T14:08:50;7.70;;;2.70;;
15383;SDS011;7790;53.022;12.968;2023-08-07T14:12:51;6.17;;;3.10;;
15383;SDS011;7790;53.022;12.968;2023-08-07T14:16:52;5.70;;;2.90;;
15383;SDS011;7790;53.022;12.968;2023-08-07T14:20:56;4.33;;;2.50;;
15383;SDS011;7790;53.022;12.968;2023-08-07T14:24:57;3.73;;;2.17;;
15383;SDS011;7790;53.022;12.968;2023-08-07T14:28:58;3.47;;;2.00;;
15383;SDS011;7790;53.022;12.968;2023-08-07T14:32:59;5.43;;;2.23;;
15383;SDS011;7790;53.022;12.968;2023-08-07T14:37:00;5.70;;;2.33;;
15383;SDS011;7790;53.022;12.968;2023-08-07T14:41:01;4.10;;;2.07;;
15383;SDS011;7790;53.022;12.968;2023-08-07T14:45:02;4.40;;;1.97;;
15383;SDS011;7790;53.022;12.968;2023-08-07T14:49:04;5.30;;;2.10;;
15383;SDS011;7790;53.022;12.968;2023-08-07T14:53:04;3.63;;;1.73;;
15383;SDS011;7790;53.022;12.968;2023-08-07T14:57:05;4.87;;;1.87;;
15383;SDS011;7790;53.022;12.968;2023-08-07T15:01:07;6.77;;;2.03;;
15383;SDS011;7790;53.022;12.968;2023-08-07T15:05:08;7.97;;;2.10;;
15383;SDS011;7790;53.022;12.968;2023-08-07T15:09:08;6.13;;;2.30;;
15383;SDS011;7790;53.022;12.968;2023-08-07T15:13:09;4.63;;;2.07;;
15383;SDS011;7790;53.022;12.968;2023-08-07T15:17:10;8.67;;;1.90;;
15383;SDS011;7790;53.022;12.968;2023-08-07T15:21:11;6.13;;;2.30;;
15383;SDS011;7790;53.022;12.968;2023-08-07T15:25:12;6.93;;;1.97;;
15383;SDS011;7790;53.022;12.968;2023-08-07T15:29:13;7.27;;;1.90;;
15383;SDS011;7790;53.022;12.968;2023-08-07T15:33:14;5.40;;;2.23;;
15383;SDS011;7790;53.022;12.968;2023-08-07T15:37:16;5.27;;;2.27;;
15383;SDS011;7790;53.022;12.968;2023-08-07T15:41:17;12.47;;;1.97;;
15383;SDS011;7790;53.022;12.968;2023-08-07T15:45:18;4.77;;;2.03;;
15383;SDS011;7790;53.022;12.968;2023-08-07T15:49:19;5.70;;;2.10;;
15383;SDS011;7790;53.022;12.968;2023-08-07T15:53:20;5.07;;;2.00;;
15383;SDS011;7790;53.022;12.968;2023-08-07T15:57:21;9.47;;;1.87;;
15383;SDS011;7790;53.022;12.968;2023-08-07T16:01:21;8.43;;;2.50;;
15383;SDS011;7790;53.022;12.968;2023-08-07T16:05:22;8.30;;;2.13;;
15383;SDS011;7790;53.022;12.968;2023-08-07T16:09:23;5.23;;;2.00;;
15383;SDS011;7790;53.022;12.968;2023-08-07T16:13:24;6.77;;;2.00;;
15383;SDS011;7790;53.022;12.968;2023-08-07T16:17:25;3.33;;;1.90;;
15383;SDS011;7790;53.022;12.968;2023-08-07T16:21:26;7.77;;;2.43;;
15383;SDS011;7790;53.022;12.968;2023-08-07T16:25:27;5.43;;;2.10;;
15383;SDS011;7790;53.022;12.968;2023-08-07T16:29:28;3.53;;;1.83;;
15383;SDS011;7790;53.022;12.968;2023-08-07T16:33:29;6.37;;;2.23;;
15383;SDS011;7790;53.022;12.968;2023-08-07T16:37:30;7.40;;;2.23;;
15383;SDS011;7790;53.022;12.968;2023-08-07T16:41:31;3.63;;;1.97;;
15383;SDS011;7790;53.022;12.968;2023-08-07T16:45:32;4.53;;;2.30;;
15383;SDS011;7790;53.022;12.968;2023-08-07T16:49:34;4.60;;;1.90;;
15383;SDS011;7790;53.022;12.968;2023-08-07T16:53:35;12.50;;;2.97;;
15383;SDS011;7790;53.022;12.968;2023-08-07T16:57:36;10.83;;;2.37;;
15383;SDS011;7790;53.022;12.968;2023-08-07T17:01:37;6.17;;;2.07;;
15383;SDS011;7790;53.022;12.968;2023-08-07T17:05:38;10.93;;;2.63;;
15383;SDS011;7790;53.022;12.968;2023-08-07T17:09:39;8.03;;;2.67;;
15383;SDS011;7790;53.022;12.968;2023-08-07T17:13:39;8.27;;;2.47;;
15383;SDS011;7790;53.022;12.968;2023-08-07T17:17:40;16.10;;;2.90;;
15383;SDS011;7790;53.022;12.968;2023-08-07T17:21:41;8.77;;;2.83;;
15383;SDS011;7790;53.022;12.968;2023-08-07T17:25:42;6.50;;;2.77;;
15383;SDS011;7790;53.022;12.968;2023-08-07T17:29:43;7.77;;;2.40;;
15383;SDS011;7790;53.022;12.968;2023-08-07T17:33:44;8.00;;;2.50;;
15383;SDS011;7790;53.022;12.968;2023-08-07T17:37:45;5.03;;;2.70;;
15383;SDS011;7790;53.022;12.968;2023-08-07T17:41:45;5.50;;;2.50;;
15383;SDS011;7790;53.022;12.968;2023-08-07T17:45:47;6.30;;;2.07;;
15383;SDS011;7790;53.022;12.968;2023-08-07T17:49:48;6.87;;;2.30;;
15383;SDS011;7790;53.022;12.968;2023-08-07T17:53:49;4.97;;;2.30;;
15383;SDS011;7790;53.022;12.968;2023-08-07T17:57:50;7.47;;;2.57;;
15383;SDS011;7790;53.022;12.968;2023-08-07T18:01:53;5.20;;;2.40;;
15383;SDS011;7790;53.022;12.968;2023-08-07T18:05:54;3.90;;;1.97;;
15383;SDS011;7790;53.022;12.968;2023-08-07T18:09:55;5.90;;;1.93;;
15383;SDS011;7790;53.022;12.968;2023-08-07T18:13:56;5.83;;;2.53;;
15383;SDS011;7790;53.022;12.968;2023-08-07T18:17:57;6.43;;;2.37;;
15383;SDS011;7790;53.022;12.968;2023-08-07T18:21:58;7.53;;;2.40;;
15383;SDS011;7790;53.022;12.968;2023-08-07T18:25:59;10.03;;;2.53;;
15383;SDS011;7790;53.022;12.968;2023-08-07T18:30:00;7.63;;;2.40;;
15383;SDS011;7790;53.022;12.968;2023-08-07T18:34:03;6.83;;;2.43;;
15383;SDS011;7790;53.022;12.968;2023-08-07T18:38:04;7.63;;;2.57;;
15383;SDS011;7790;53.022;12.968;2023-08-07T18:42:05;6.40;;;2.50;;
15383;SDS011;7790;53.022;12.968;2023-08-07T18:46:06;8.47;;;2.40;;
15383;SDS011;7790;53.022;12.968;2023-08-07T18:50:07;4.90;;;2.30;;
15383;SDS011;7790;53.022;12.968;2023-08-07T18:54:09;5.57;;;2.23;;
15383;SDS011;7790;53.022;12.968;2023-08-07T18:58:10;4.27;;;1.90;;
15383;SDS011;7790;53.022;12.968;2023-08-07T19:02:10;9.87;;;2.93;;
15383;SDS011;7790;53.022;12.968;2023-08-07T19:06:11;5.93;;;2.43;;
15383;SDS011;7790;53.022;12.968;2023-08-07T19:10:12;8.43;;;2.47;;
15383;SDS011;7790;53.022;12.968;2023-08-07T19:14:13;3.77;;;2.17;;
15383;SDS011;7790;53.022;12.968;2023-08-07T19:18:14;5.30;;;2.20;;
15383;SDS011;7790;53.022;12.968;2023-08-07T19:22:15;5.70;;;2.40;;
15383;SDS011;7790;53.022;12.968;2023-08-07T19:26:16;9.40;;;2.37;;
15383;SDS011;7790;53.022;12.968;2023-08-07T19:30:17;11.17;;;2.47;;
15383;SDS011;7790;53.022;12.968;2023-08-07T19:34:18;6.67;;;2.40;;
15383;SDS011;7790;53.022;12.968;2023-08-07T19:38:19;6.07;;;2.73;;
15383;SDS011;7790;53.022;12.968;2023-08-07T19:42:19;5.70;;;2.07;;
15383;SDS011;7790;53.022;12.968;2023-08-07T19:46:21;5.07;;;2.20;;
15383;SDS011;7790;53.022;12.968;2023-08-07T19:50:23;6.23;;;2.27;;
15383;SDS011;7790;53.022;12.968;2023-08-07T19:54:24;4.93;;;2.30;;
15383;SDS011;7790;53.022;12.968;2023-08-07T19:58:25;9.37;;;2.47;;
15383;SDS011;7790;53.022;12.968;2023-08-07T20:02:26;7.23;;;2.30;;
15383;SDS011;7790;53.022;12.968;2023-08-07T20:06:27;5.47;;;2.30;;
15383;SDS011;7790;53.022;12.968;2023-08-07T20:10:29;6.50;;;2.50;;
15383;SDS011;7790;53.022;12.968;2023-08-07T20:14:32;5.47;;;2.67;;
15383;SDS011;7790;53.022;12.968;2023-08-07T20:18:36;4.80;;;2.30;;
15383;SDS011;7790;53.022;12.968;2023-08-07T20:22:37;6.67;;;2.80;;
15383;SDS011;7790;53.022;12.968;2023-08-07T20:26:38;4.77;;;2.30;;
15383;SDS011;7790;53.022;12.968;2023-08-07T20:30:38;3.43;;;2.30;;
15383;SDS011;7790;53.022;12.968;2023-08-07T20:34:39;5.23;;;2.50;;
15383;SDS011;7790;53.022;12.968;2023-08-07T20:38:41;4.53;;;2.30;;
15383;SDS011;7790;53.022;12.968;2023-08-07T20:42:42;5.63;;;2.27;;
15383;SDS011;7790;53.022;12.968;2023-08-07T20:46:43;6.17;;;2.30;;
15383;SDS011;7790;53.022;12.968;2023-08-07T20:50:44;4.30;;;2.23;;
15383;SDS011;7790;53.022;12.968;2023-08-07T20:54:45;5.93;;;2.20;;
15383;SDS011;7790;53.022;12.968;2023-08-07T20:58:46;3.90;;;2.20;;
15383;SDS011;7790;53.022;12.968;2023-08-07T21:02:47;4.30;;;2.00;;
15383;SDS011;7790;53.022;12.968;2023-08-07T21:06:49;3.77;;;1.90;;
15383;SDS011;7790;53.022;12.968;2023-08-07T21:10:50;4.40;;;1.90;;
15383;SDS011;7790;53.022;12.968;2023-08-07T21:14:54;5.50;;;2.20;;
15383;SDS011;7790;53.022;12.968;2023-08-07T21:18:56;3.53;;;1.83;;
15383;SDS011;7790;53.022;12.968;2023-08-07T21:22:57;3.67;;;1.93;;
15383;SDS011;7790;53.022;12.968;2023-08-07T21:26:58;3.00;;;1.90;;
15383;SDS011;7790;53.022;12.968;2023-08-07T21:30:58;3.80;;;2.20;;
15383;SDS011;7790;53.022;12.968;2023-08-07T21:34:59;3.10;;;1.90;;
15383;SDS011;7790;53.022;12.968;2023-08-07T21:39:00;3.90;;;2.30;;
15383;SDS011;7790;53.022;12.968;2023-08-07T21:43:01;2.90;;;1.93;;
15383;SDS011;7790;53.022;12.968;2023-08-07T21:47:02;3.30;;;2.20;;
15383;SDS011;7790;53.022;12.968;2023-08-07T21:51:03;3.07;;;1.83;;
15383;SDS011;7790;53.022;12.968;2023-08-07T21:55:04;5.53;;;2.23;;
15383;SDS011;7790;53.022;12.968;2023-08-07T21:59:06;6.40;;;2.47;;
15383;SDS011;7790;53.022;12.968;2023-08-07T22:03:06;4.53;;;2.13;;
15383;SDS011;7790;53.022;12.968;2023-08-07T22:07:07;4.10;;;1.47;;
15383;SDS011;7790;53.022;12.968;2023-08-07T22:11:08;3.67;;;1.80;;
15383;SDS011;7790;53.022;12.968;2023-08-07T22:15:09;3.23;;;1.90;;
15383;SDS011;7790;53.022;12.968;2023-08-07T22:19:11;3.57;;;2.30;;
15383;SDS011;7790;53.022;12.968;2023-08-07T22:23:12;2.93;;;1.90;;
15383;SDS011;7790;53.022;12.968;2023-08-07T22:27:12;3.13;;;1.90;;
15383;SDS011;7790;53.022;12.968;2023-08-07T22:31:13;4.67;;;1.90;;
15383;SDS011;7790;53.022;12.968;2023-08-07T22:35:14;2.43;;;2.00;;
15383;SDS011;7790;53.022;12.968;2023-08-07T22:39:16;2.83;;;1.80;;
15383;SDS011;7790;53.022;12.968;2023-08-07T22:43:16;3.73;;;2.00;;
15383;SDS011;7790;53.022;12.968;2023-08-07T22:47:17;5.23;;;2.23;;
15383;SDS011;7790;53.022;12.968;2023-08-07T22:51:18;3.53;;;2.20;;
15383;SDS011;7790;53.022;12.968;2023-08-07T22:55:19;3.53;;;2.03;;
15383;SDS011;7790;53.022;12.968;2023-08-07T22:59:20;2.93;;;1.80;;
15383;SDS011;7790;53.022;12.968;2023-08-07T23:03:21;4.10;;;2.40;;
15383;SDS011;7790;53.022;12.968;2023-08-07T23:07:21;3.53;;;1.80;;
15383;SDS011;7790;53.022;12.968;2023-08-07T23:11:22;4.47;;;2.10;;
15383;SDS011;7790;53.022;12.968;2023-08-07T23:15:23;2.20;;;1.90;;
15383;SDS011;7790;53.022;12.968;2023-08-07T23:19:24;5.43;;;1.97;;
15383;SDS011;7790;53.022;12.968;2023-08-07T23:23:25;3.33;;;1.67;;
15383;SDS011;7790;53.022;12.968;2023-08-07T23:27:27;2.93;;;2.00;;
15383;SDS011;7790;53.022;12.968;2023-08-07T23:31:28;3.47;;;1.90;;
15383;SDS011;7790;53.022;12.968;2023-08-07T23:35:29;4.43;;;1.80;;
15383;SDS011;7790;53.022;12.968;2023-08-07T23:39:29;3.57;;;1.80;;
15383;SDS011;7790;53.022;12.968;2023-08-07T23:43:30;3.53;;;1.73;;
15383;SDS011;7790;53.022;12.968;2023-08-07T23:47:33;3.23;;;2.00;;
15383;SDS011;7790;53.022;12.968;2023-08-07T23:51:34;3.23;;;2.03;;
15383;SDS011;7790;53.022;12.968;2023-08-07T23:55:35;3.90;;;1.87;;
15383;SDS011;7790;53.022;12.968;2023-08-07T23:59:35;2.67;;;1.80;;
